sensor_id;sensor_type;location;lat;lon;timestamp;P1;durP1;ratioP1;P2;durP2;ratioP2
37173;SDS011;23068;51.430;5.540;2022-10-31T00:03:39;3.88;;;2.17;;
37173;SDS011;23068;51.430;5.540;2022-10-31T00:09:39;2.75;;;0.70;;
37173;SDS011;23068;51.430;5.540;2022-10-31T00:15:40;2.90;;;0.80;;
37173;SDS011;23068;51.430;5.540;2022-10-31T00:21:40;3.97;;;1.55;;
37173;SDS011;23068;51.430;5.540;2022-10-31T00:27:41;1.02;;;0.47;;
37173;SDS011;23068;51.430;5.540;2022-10-31T00:33:41;3.47;;;1.00;;
37173;SDS011;23068;51.430;5.540;2022-10-31T00:39:42;26.70;;;2.38;;
37173;SDS011;23068;51.430;5.540;2022-10-31T00:45:42;2.63;;;0.55;;
37173;SDS011;23068;51.430;5.540;2022-10-31T00:51:43;2.47;;;0.40;;
37173;SDS011;23068;51.430;5.540;2022-10-31T00:57:45;1.40;;;0.70;;
37173;SDS011;23068;51.430;5.540;2022-10-31T01:03:46;1.33;;;0.77;;
37173;SDS011;23068;51.430;5.540;2022-10-31T01:09:46;2.08;;;1.25;;
37173;SDS011;23068;51.430;5.540;2022-10-31T01:15:52;1.92;;;1.42;;
37173;SDS011;23068;51.430;5.540;2022-10-31T01:21:54;1.70;;;0.63;;
37173;SDS011;23068;51.430;5.540;2022-10-31T01:27:54;1.35;;;0.90;;
37173;SDS011;23068;51.430;5.540;2022-10-31T01:33:55;2.08;;;0.85;;
37173;SDS011;23068;51.430;5.540;2022-10-31T01:39:55;1.85;;;1.35;;
37173;SDS011;23068;51.430;5.540;2022-10-31T01:45:55;1.55;;;0.30;;
37173;SDS011;23068;51.430;5.540;2022-10-31T01:51:57;1.60;;;0.90;;
37173;SDS011;23068;51.430;5.540;2022-10-31T01:58:04;2.80;;;0.87;;
37173;SDS011;23068;51.430;5.540;2022-10-31T02:04:12;1.95;;;1.23;;
37173;SDS011;23068;51.430;5.540;2022-10-31T02:10:12;1.25;;;0.45;;
37173;SDS011;23068;51.430;5.540;2022-10-31T02:16:13;2.58;;;0.80;;
37173;SDS011;23068;51.430;5.540;2022-10-31T02:22:16;1.55;;;0.95;;
37173;SDS011;23068;51.430;5.540;2022-10-31T02:34:43;5.20;;;1.52;;
37173;SDS011;23068;51.430;5.540;2022-10-31T02:41:20;5.45;;;0.52;;
37173;SDS011;23068;51.430;5.540;2022-10-31T02:47:37;1.02;;;0.68;;
37173;SDS011;23068;51.430;5.540;2022-10-31T02:53:38;2.72;;;1.25;;
37173;SDS011;23068;51.430;5.540;2022-10-31T02:59:39;0.90;;;0.35;;
37173;SDS011;23068;51.430;5.540;2022-10-31T03:12:10;7.60;;;1.65;;
37173;SDS011;23068;51.430;5.540;2022-10-31T03:24:30;5.47;;;2.47;;
37173;SDS011;23068;51.430;5.540;2022-10-31T03:30:36;5.07;;;1.17;;
37173;SDS011;23068;51.430;5.540;2022-10-31T03:36:41;3.70;;;0.85;;
37173;SDS011;23068;51.430;5.540;2022-10-31T03:42:44;1.90;;;1.23;;
37173;SDS011;23068;51.430;5.540;2022-10-31T03:48:51;1.52;;;0.63;;
37173;SDS011;23068;51.430;5.540;2022-10-31T03:54:53;4.95;;;0.93;;
37173;SDS011;23068;51.430;5.540;2022-10-31T04:00:57;4.55;;;1.10;;
37173;SDS011;23068;51.430;5.540;2022-10-31T04:06:58;1.83;;;0.80;;
37173;SDS011;23068;51.430;5.540;2022-10-31T04:13:02;3.03;;;0.95;;
37173;SDS011;23068;51.430;5.540;2022-10-31T04:19:05;4.53;;;1.55;;
37173;SDS011;23068;51.430;5.540;2022-10-31T04:25:06;1.60;;;0.98;;
37173;SDS011;23068;51.430;5.540;2022-10-31T04:31:08;2.03;;;1.13;;
37173;SDS011;23068;51.430;5.540;2022-10-31T04:37:10;4.30;;;1.20;;
37173;SDS011;23068;51.430;5.540;2022-10-31T04:43:10;5.00;;;2.47;;
37173;SDS011;23068;51.430;5.540;2022-10-31T04:49:10;6.50;;;1.35;;
37173;SDS011;23068;51.430;5.540;2022-10-31T04:55:11;5.95;;;1.13;;
37173;SDS011;23068;51.430;5.540;2022-10-31T05:01:12;7.35;;;1.60;;
37173;SDS011;23068;51.430;5.540;2022-10-31T05:07:12;7.80;;;1.67;;
37173;SDS011;23068;51.430;5.540;2022-10-31T05:13:13;8.10;;;1.55;;
37173;SDS011;23068;51.430;5.540;2022-10-31T05:19:13;5.22;;;1.25;;
37173;SDS011;23068;51.430;5.540;2022-10-31T05:25:13;3.05;;;1.52;;
37173;SDS011;23068;51.430;5.540;2022-10-31T05:31:14;6.10;;;1.65;;
37173;SDS011;23068;51.430;5.540;2022-10-31T05:37:14;3.95;;;1.42;;
37173;SDS011;23068;51.430;5.540;2022-10-31T05:43:14;10.45;;;2.75;;
37173;SDS011;23068;51.430;5.540;2022-10-31T05:49:15;7.07;;;1.85;;
37173;SDS011;23068;51.430;5.540;2022-10-31T05:55:15;2.63;;;1.15;;
37173;SDS011;23068;51.430;5.540;2022-10-31T06:01:15;2.45;;;1.95;;
37173;SDS011;23068;51.430;5.540;2022-10-31T06:07:16;2.70;;;1.20;;
37173;SDS011;23068;51.430;5.540;2022-10-31T06:13:16;4.00;;;1.83;;
37173;SDS011;23068;51.430;5.540;2022-10-31T06:19:16;6.55;;;1.80;;
37173;SDS011;23068;51.430;5.540;2022-10-31T06:25:16;3.30;;;1.20;;
37173;SDS011;23068;51.430;5.540;2022-10-31T06:31:17;1.88;;;1.02;;
37173;SDS011;23068;51.430;5.540;2022-10-31T06:37:17;2.03;;;1.58;;
37173;SDS011;23068;51.430;5.540;2022-10-31T06:43:17;10.23;;;2.50;;
37173;SDS011;23068;51.430;5.540;2022-10-31T06:49:17;9.15;;;2.47;;
37173;SDS011;23068;51.430;5.540;2022-10-31T06:55:18;5.07;;;1.13;;
37173;SDS011;23068;51.430;5.540;2022-10-31T07:01:18;3.55;;;1.90;;
37173;SDS011;23068;51.430;5.540;2022-10-31T07:07:18;5.13;;;1.95;;
37173;SDS011;23068;51.430;5.540;2022-10-31T07:13:18;11.00;;;2.25;;
37173;SDS011;23068;51.430;5.540;2022-10-31T07:19:19;13.80;;;2.78;;
37173;SDS011;23068;51.430;5.540;2022-10-31T07:25:19;7.53;;;3.35;;
37173;SDS011;23068;51.430;5.540;2022-10-31T07:31:20;6.65;;;1.67;;
37173;SDS011;23068;51.430;5.540;2022-10-31T07:37:20;5.07;;;1.20;;
37173;SDS011;23068;51.430;5.540;2022-10-31T07:43:20;6.55;;;3.03;;
37173;SDS011;23068;51.430;5.540;2022-10-31T07:49:21;3.38;;;2.13;;
37173;SDS011;23068;51.430;5.540;2022-10-31T07:55:21;5.07;;;2.00;;
37173;SDS011;23068;51.430;5.540;2022-10-31T08:01:21;5.47;;;1.48;;
37173;SDS011;23068;51.430;5.540;2022-10-31T08:07:21;11.57;;;5.30;;
37173;SDS011;23068;51.430;5.540;2022-10-31T08:13:22;3.80;;;2.95;;
37173;SDS011;23068;51.430;5.540;2022-10-31T08:19:22;5.97;;;2.70;;
37173;SDS011;23068;51.430;5.540;2022-10-31T08:25:22;5.50;;;2.65;;
37173;SDS011;23068;51.430;5.540;2022-10-31T08:31:23;11.65;;;2.83;;
37173;SDS011;23068;51.430;5.540;2022-10-31T08:37:23;11.82;;;4.53;;
37173;SDS011;23068;51.430;5.540;2022-10-31T08:43:23;5.35;;;2.55;;
37173;SDS011;23068;51.430;5.540;2022-10-31T08:49:24;10.68;;;2.25;;
37173;SDS011;23068;51.430;5.540;2022-10-31T08:55:24;3.67;;;1.20;;
37173;SDS011;23068;51.430;5.540;2022-10-31T09:01:24;4.82;;;3.05;;
37173;SDS011;23068;51.430;5.540;2022-10-31T09:07:24;7.45;;;2.88;;
37173;SDS011;23068;51.430;5.540;2022-10-31T09:13:25;7.50;;;4.60;;
37173;SDS011;23068;51.430;5.540;2022-10-31T09:19:26;18.80;;;5.07;;
37173;SDS011;23068;51.430;5.540;2022-10-31T09:25:26;8.90;;;3.22;;
37173;SDS011;23068;51.430;5.540;2022-10-31T09:31:27;16.05;;;4.05;;
37173;SDS011;23068;51.430;5.540;2022-10-31T09:37:28;6.97;;;3.25;;
37173;SDS011;23068;51.430;5.540;2022-10-31T09:43:50;7.95;;;4.30;;
37173;SDS011;23068;51.430;5.540;2022-10-31T09:56:14;12.68;;;4.22;;
37173;SDS011;23068;51.430;5.540;2022-10-31T10:02:30;12.15;;;3.83;;
37173;SDS011;23068;51.430;5.540;2022-10-31T10:08:37;9.98;;;3.53;;
37173;SDS011;23068;51.430;5.540;2022-10-31T10:14:54;19.70;;;7.68;;
37173;SDS011;23068;51.430;5.540;2022-10-31T10:34:11;13.20;;;7.22;;
37173;SDS011;23068;51.430;5.540;2022-10-31T10:40:19;11.65;;;4.28;;
37173;SDS011;23068;51.430;5.540;2022-10-31T10:46:44;7.13;;;4.22;;
37173;SDS011;23068;51.430;5.540;2022-10-31T10:53:01;10.98;;;5.53;;
37173;SDS011;23068;51.430;5.540;2022-10-31T10:59:15;10.23;;;6.60;;
37173;SDS011;23068;51.430;5.540;2022-10-31T11:05:20;17.13;;;3.33;;
37173;SDS011;23068;51.430;5.540;2022-10-31T11:11:31;6.85;;;3.95;;
37173;SDS011;23068;51.430;5.540;2022-10-31T11:17:33;11.60;;;5.07;;
37173;SDS011;23068;51.430;5.540;2022-10-31T11:23:36;15.32;;;5.43;;
37173;SDS011;23068;51.430;5.540;2022-10-31T11:29:36;7.13;;;4.53;;
37173;SDS011;23068;51.430;5.540;2022-10-31T11:35:38;13.18;;;3.05;;
37173;SDS011;23068;51.430;5.540;2022-10-31T11:41:39;7.57;;;3.60;;
37173;SDS011;23068;51.430;5.540;2022-10-31T11:47:44;10.40;;;5.00;;
37173;SDS011;23068;51.430;5.540;2022-10-31T11:53:52;8.90;;;5.20;;
37173;SDS011;23068;51.430;5.540;2022-10-31T11:59:56;15.05;;;7.00;;
37173;SDS011;23068;51.430;5.540;2022-10-31T12:06:00;16.40;;;2.03;;
37173;SDS011;23068;51.430;5.540;2022-10-31T12:12:14;8.82;;;2.70;;
37173;SDS011;23068;51.430;5.540;2022-10-31T12:18:42;3.25;;;1.55;;
37173;SDS011;23068;51.430;5.540;2022-10-31T12:24:58;6.95;;;0.95;;
37173;SDS011;23068;51.430;5.540;2022-10-31T12:44:05;2.40;;;1.48;;
37173;SDS011;23068;51.430;5.540;2022-10-31T13:03:21;5.00;;;1.48;;
37173;SDS011;23068;51.430;5.540;2022-10-31T13:09:40;6.97;;;2.17;;
37173;SDS011;23068;51.430;5.540;2022-10-31T13:16:02;7.22;;;3.00;;
37173;SDS011;23068;51.430;5.540;2022-10-31T13:28:38;5.97;;;3.13;;
37173;SDS011;23068;51.430;5.540;2022-10-31T13:34:45;3.80;;;1.52;;
37173;SDS011;23068;51.430;5.540;2022-10-31T13:40:51;3.97;;;1.52;;
37173;SDS011;23068;51.430;5.540;2022-10-31T13:46:56;7.72;;;1.98;;
37173;SDS011;23068;51.430;5.540;2022-10-31T13:53:11;6.22;;;1.80;;
37173;SDS011;23068;51.430;5.540;2022-10-31T13:59:18;4.18;;;1.48;;
37173;SDS011;23068;51.430;5.540;2022-10-31T14:05:24;6.95;;;2.88;;
37173;SDS011;23068;51.430;5.540;2022-10-31T14:11:35;5.90;;;2.00;;
37173;SDS011;23068;51.430;5.540;2022-10-31T14:17:44;3.55;;;2.42;;
37173;SDS011;23068;51.430;5.540;2022-10-31T14:23:51;2.63;;;1.38;;
37173;SDS011;23068;51.430;5.540;2022-10-31T14:29:52;3.95;;;1.40;;
37173;SDS011;23068;51.430;5.540;2022-10-31T14:36:11;2.20;;;0.98;;
37173;SDS011;23068;51.430;5.540;2022-10-31T14:42:36;9.43;;;1.52;;
37173;SDS011;23068;51.430;5.540;2022-10-31T14:48:47;6.53;;;1.23;;
37173;SDS011;23068;51.430;5.540;2022-10-31T14:55:05;5.93;;;2.80;;
37173;SDS011;23068;51.430;5.540;2022-10-31T15:01:48;1.93;;;1.17;;
37173;SDS011;23068;51.430;5.540;2022-10-31T15:07:49;2.45;;;0.85;;
37173;SDS011;23068;51.430;5.540;2022-10-31T15:13:54;3.35;;;1.20;;
37173;SDS011;23068;51.430;5.540;2022-10-31T15:19:57;4.28;;;0.88;;
37173;SDS011;23068;51.430;5.540;2022-10-31T15:26:02;8.35;;;1.13;;
37173;SDS011;23068;51.430;5.540;2022-10-31T15:38:28;1.73;;;1.10;;
37173;SDS011;23068;51.430;5.540;2022-10-31T15:44:30;5.70;;;1.60;;
37173;SDS011;23068;51.430;5.540;2022-10-31T15:50:36;7.10;;;2.30;;
37173;SDS011;23068;51.430;5.540;2022-10-31T15:56:38;2.35;;;0.38;;
37173;SDS011;23068;51.430;5.540;2022-10-31T16:02:39;0.90;;;0.52;;
37173;SDS011;23068;51.430;5.540;2022-10-31T16:08:44;5.45;;;1.35;;
37173;SDS011;23068;51.430;5.540;2022-10-31T16:14:48;6.95;;;2.08;;
37173;SDS011;23068;51.430;5.540;2022-10-31T16:20:50;3.53;;;1.38;;
37173;SDS011;23068;51.430;5.540;2022-10-31T16:26:54;1.13;;;0.50;;
37173;SDS011;23068;51.430;5.540;2022-10-31T16:32:59;6.20;;;0.63;;
37173;SDS011;23068;51.430;5.540;2022-10-31T16:39:00;2.50;;;0.75;;
37173;SDS011;23068;51.430;5.540;2022-10-31T16:45:00;7.53;;;1.42;;
37173;SDS011;23068;51.430;5.540;2022-10-31T16:51:01;3.65;;;0.95;;
37173;SDS011;23068;51.430;5.540;2022-10-31T16:57:02;1.52;;;0.60;;
37173;SDS011;23068;51.430;5.540;2022-10-31T17:03:03;3.38;;;1.27;;
37173;SDS011;23068;51.430;5.540;2022-10-31T17:09:03;1.77;;;0.98;;
37173;SDS011;23068;51.430;5.540;2022-10-31T17:15:04;3.35;;;1.15;;
37173;SDS011;23068;51.430;5.540;2022-10-31T17:21:17;2.42;;;1.30;;
37173;SDS011;23068;51.430;5.540;2022-10-31T17:27:20;8.10;;;0.47;;
37173;SDS011;23068;51.430;5.540;2022-10-31T17:33:20;3.10;;;0.93;;
37173;SDS011;23068;51.430;5.540;2022-10-31T17:39:21;3.65;;;0.85;;
37173;SDS011;23068;51.430;5.540;2022-10-31T17:45:21;4.55;;;2.50;;
37173;SDS011;23068;51.430;5.540;2022-10-31T17:51:23;2.20;;;0.45;;
37173;SDS011;23068;51.430;5.540;2022-10-31T17:57:23;1.45;;;0.40;;
37173;SDS011;23068;51.430;5.540;2022-10-31T18:03:24;7.30;;;1.38;;
37173;SDS011;23068;51.430;5.540;2022-10-31T18:09:25;1.05;;;0.30;;
37173;SDS011;23068;51.430;5.540;2022-10-31T18:15:25;2.55;;;0.70;;
37173;SDS011;23068;51.430;5.540;2022-10-31T18:21:25;0.65;;;0.45;;
37173;SDS011;23068;51.430;5.540;2022-10-31T18:27:26;2.22;;;1.13;;
37173;SDS011;23068;51.430;5.540;2022-10-31T18:33:26;2.65;;;0.85;;
37173;SDS011;23068;51.430;5.540;2022-10-31T18:39:27;1.38;;;0.57;;
37173;SDS011;23068;51.430;5.540;2022-10-31T18:45:27;3.30;;;0.60;;
37173;SDS011;23068;51.430;5.540;2022-10-31T18:51:27;1.08;;;0.22;;
37173;SDS011;23068;51.430;5.540;2022-10-31T18:57:28;1.23;;;0.22;;
37173;SDS011;23068;51.430;5.540;2022-10-31T19:03:28;1.60;;;0.73;;
37173;SDS011;23068;51.430;5.540;2022-10-31T19:09:28;1.63;;;1.20;;
37173;SDS011;23068;51.430;5.540;2022-10-31T19:15:28;2.15;;;0.38;;
37173;SDS011;23068;51.430;5.540;2022-10-31T19:21:29;6.32;;;0.82;;
37173;SDS011;23068;51.430;5.540;2022-10-31T19:27:29;1.42;;;0.75;;
37173;SDS011;23068;51.430;5.540;2022-10-31T19:33:30;2.83;;;1.88;;
37173;SDS011;23068;51.430;5.540;2022-10-31T19:39:30;4.38;;;2.05;;
37173;SDS011;23068;51.430;5.540;2022-10-31T19:45:30;1.42;;;0.57;;
37173;SDS011;23068;51.430;5.540;2022-10-31T19:51:30;4.07;;;1.00;;
37173;SDS011;23068;51.430;5.540;2022-10-31T19:57:32;1.02;;;0.32;;
37173;SDS011;23068;51.430;5.540;2022-10-31T20:03:32;2.58;;;1.42;;
37173;SDS011;23068;51.430;5.540;2022-10-31T20:09:33;6.30;;;1.00;;
37173;SDS011;23068;51.430;5.540;2022-10-31T20:15:33;5.38;;;2.08;;
37173;SDS011;23068;51.430;5.540;2022-10-31T20:21:38;2.63;;;0.80;;
37173;SDS011;23068;51.430;5.540;2022-10-31T20:27:39;2.10;;;1.38;;
37173;SDS011;23068;51.430;5.540;2022-10-31T20:33:39;2.85;;;0.70;;
37173;SDS011;23068;51.430;5.540;2022-10-31T20:39:40;3.03;;;0.85;;
37173;SDS011;23068;51.430;5.540;2022-10-31T20:45:40;3.20;;;1.52;;
37173;SDS011;23068;51.430;5.540;2022-10-31T20:51:40;2.53;;;1.13;;
37173;SDS011;23068;51.430;5.540;2022-10-31T20:57:40;1.23;;;0.30;;
37173;SDS011;23068;51.430;5.540;2022-10-31T21:03:41;1.08;;;0.32;;
37173;SDS011;23068;51.430;5.540;2022-10-31T21:09:42;6.13;;;1.55;;
37173;SDS011;23068;51.430;5.540;2022-10-31T21:15:42;2.58;;;1.33;;
37173;SDS011;23068;51.430;5.540;2022-10-31T21:21:43;1.05;;;0.30;;
37173;SDS011;23068;51.430;5.540;2022-10-31T21:27:43;1.92;;;1.25;;
37173;SDS011;23068;51.430;5.540;2022-10-31T21:33:43;1.55;;;0.70;;
37173;SDS011;23068;51.430;5.540;2022-10-31T21:39:44;2.45;;;0.82;;
37173;SDS011;23068;51.430;5.540;2022-10-31T21:45:44;3.03;;;1.48;;
